createdAt,value
2022-11-27T00:01:52.161Z,6.70
2022-11-27T00:04:19.452Z,6.70
2022-11-27T00:06:45.959Z,6.70
2022-11-27T00:09:15.184Z,6.70
2022-11-27T00:11:41.982Z,6.80
2022-11-27T00:14:11.098Z,6.80
2022-11-27T00:16:37.616Z,6.70
2022-11-27T00:19:04.136Z,6.80
2022-11-27T00:21:31.760Z,6.70
2022-11-27T00:23:59.247Z,6.70
2022-11-27T00:26:26.317Z,6.80
2022-11-27T00:28:53.129Z,6.70
2022-11-27T00:31:23.778Z,6.70
2022-11-27T00:33:50.456Z,6.70
2022-11-27T00:36:16.902Z,6.70
2022-11-27T00:38:43.439Z,6.70
2022-11-27T00:41:20.405Z,6.70
2022-11-27T00:43:46.962Z,6.70
2022-11-27T00:46:14.184Z,6.70
2022-11-27T00:48:41.144Z,6.70
2022-11-27T00:51:08.728Z,6.60
2022-11-27T00:53:35.563Z,6.60
2022-11-27T00:56:02.123Z,6.60
2022-11-27T00:58:30.043Z,6.60
2022-11-27T01:00:56.606Z,6.60
2022-11-27T01:03:23.712Z,6.60
2022-11-27T01:05:50.249Z,6.60
2022-11-27T01:08:17.150Z,6.60
2022-11-27T01:10:54.748Z,6.50
2022-11-27T01:13:27.984Z,6.50
2022-11-27T01:16:01.487Z,6.50
2022-11-27T01:18:28.435Z,6.50
2022-11-27T01:20:55.353Z,6.50
2022-11-27T01:23:22.375Z,6.50
2022-11-27T01:25:48.969Z,6.50
2022-11-27T01:28:15.795Z,6.50
2022-11-27T01:30:42.287Z,6.50
2022-11-27T01:33:08.768Z,6.50
2022-11-27T01:35:35.301Z,6.40
2022-11-27T01:38:01.796Z,6.40
2022-11-27T01:40:28.374Z,6.40
2022-11-27T01:42:54.968Z,6.40
2022-11-27T01:45:22.023Z,6.30
2022-11-27T01:47:56.366Z,6.20
2022-11-27T01:50:29.064Z,6.20
2022-11-27T01:53:00.989Z,6.20
2022-11-27T01:55:39.277Z,6.10
2022-11-27T01:58:10.651Z,6.10
2022-11-27T02:00:37.961Z,6.10
2022-11-27T02:03:04.881Z,6.00
2022-11-27T02:05:33.356Z,6.00
2022-11-27T02:08:03.079Z,6.00
2022-11-27T02:10:45.962Z,6.00
2022-11-27T02:13:33.572Z,6.00
2022-11-27T02:16:18.249Z,5.90
2022-11-27T02:19:00.126Z,5.90
2022-11-27T02:21:39.116Z,5.80
2022-11-27T02:24:17.746Z,5.80
2022-11-27T02:27:03.156Z,5.70
2022-11-27T02:29:31.329Z,5.60
2022-11-27T02:32:11.328Z,5.60
2022-11-27T02:34:44.486Z,5.60
2022-11-27T02:37:22.913Z,5.50
2022-11-27T02:40:01.628Z,5.40
2022-11-27T02:42:30.604Z,5.40
2022-11-27T02:45:00.451Z,5.40
2022-11-27T02:47:28.051Z,5.40
2022-11-27T02:49:56.987Z,5.30
2022-11-27T02:52:25.956Z,5.30
2022-11-27T02:54:54.336Z,5.20
2022-11-27T02:57:22.591Z,5.10
2022-11-27T02:59:50.035Z,5.10
2022-11-27T03:02:19.077Z,5.00
2022-11-27T03:04:48.135Z,5.00
2022-11-27T03:07:16.780Z,4.90
2022-11-27T03:09:44.952Z,4.90
2022-11-27T03:12:12.151Z,4.70
2022-11-27T03:14:39.859Z,4.70
2022-11-27T03:17:09.665Z,4.70
2022-11-27T03:19:39.151Z,4.60
2022-11-27T03:22:05.697Z,4.60
2022-11-27T03:24:34.056Z,4.60
2022-11-27T03:27:00.716Z,4.50
2022-11-27T03:29:41.606Z,4.50
2022-11-27T03:32:08.172Z,4.20
2022-11-27T03:34:35.290Z,4.20
2022-11-27T03:37:01.824Z,4.20
2022-11-27T03:39:28.837Z,4.30
2022-11-27T03:42:13.866Z,4.30
2022-11-27T03:44:46.372Z,4.20
2022-11-27T03:47:21.366Z,4.20
2022-11-27T03:49:57.192Z,4.30
2022-11-27T03:52:42.425Z,4.20
2022-11-27T03:55:29.325Z,4.30
2022-11-27T03:57:55.848Z,4.10
2022-11-27T04:00:22.421Z,4.10
2022-11-27T04:02:53.229Z,4.20
2022-11-27T04:05:20.241Z,4.00
2022-11-27T04:07:46.812Z,3.90
2022-11-27T04:10:13.393Z,3.90
2022-11-27T04:12:39.887Z,3.80
2022-11-27T04:15:06.797Z,3.80
2022-11-27T04:17:33.316Z,3.80
2022-11-27T04:19:59.900Z,3.70
2022-11-27T04:22:26.407Z,3.70
2022-11-27T04:24:52.946Z,3.60
2022-11-27T04:27:19.529Z,3.70
2022-11-27T04:29:46.029Z,3.80
2022-11-27T04:32:13.522Z,3.70
2022-11-27T04:34:40.268Z,3.70
2022-11-27T04:37:06.955Z,3.70
2022-11-27T04:39:33.464Z,3.60
2022-11-27T04:41:59.972Z,3.60
2022-11-27T04:44:26.448Z,3.60
2022-11-27T04:46:52.940Z,3.60
2022-11-27T04:49:19.513Z,3.50
2022-11-27T04:51:45.993Z,3.40
2022-11-27T04:54:12.618Z,3.50
2022-11-27T04:56:39.112Z,3.40
2022-11-27T04:59:05.748Z,3.20
2022-11-27T05:01:32.263Z,3.20
2022-11-27T05:03:58.797Z,3.30
2022-11-27T05:06:25.273Z,3.30
2022-11-27T05:08:51.737Z,3.30
2022-11-27T05:11:18.290Z,3.20
2022-11-27T05:13:44.868Z,3.30
2022-11-27T05:16:12.412Z,3.20
2022-11-27T05:18:38.999Z,3.30
2022-11-27T05:21:07.286Z,3.30
2022-11-27T05:23:34.417Z,3.30
2022-11-27T05:26:00.907Z,3.40
2022-11-27T05:28:27.455Z,3.40
2022-11-27T05:30:54.436Z,3.30
2022-11-27T05:33:21.177Z,3.40
2022-11-27T05:35:47.721Z,3.40
2022-11-27T05:38:14.198Z,3.30
2022-11-27T05:40:40.659Z,3.40
2022-11-27T05:43:07.113Z,3.40
2022-11-27T05:45:33.841Z,3.40
2022-11-27T05:48:00.421Z,3.30
2022-11-27T05:50:26.968Z,3.30
2022-11-27T05:52:53.496Z,3.30
2022-11-27T05:55:20.032Z,3.30
2022-11-27T05:57:46.626Z,3.30
2022-11-27T06:00:14.069Z,3.30
2022-11-27T06:02:40.724Z,3.20
2022-11-27T06:05:07.686Z,3.20
2022-11-27T06:07:34.245Z,3.20
2022-11-27T06:10:00.740Z,3.30
2022-11-27T06:12:27.223Z,3.30
2022-11-27T06:14:53.749Z,3.30
2022-11-27T06:17:20.259Z,3.20
2022-11-27T06:19:46.833Z,3.20
2022-11-27T06:22:13.504Z,3.20
2022-11-27T06:24:40.163Z,3.20
2022-11-27T06:27:06.807Z,3.30
2022-11-27T06:29:33.371Z,3.30
2022-11-27T06:32:00.024Z,3.40
2022-11-27T06:34:26.612Z,3.40
2022-11-27T06:36:53.318Z,3.40
2022-11-27T06:39:19.812Z,3.50
2022-11-27T06:41:46.429Z,3.50
2022-11-27T06:44:13.036Z,3.50
2022-11-27T06:46:39.568Z,3.50
2022-11-27T06:49:06.128Z,3.50
2022-11-27T06:51:32.728Z,3.60
2022-11-27T06:53:59.838Z,3.50
2022-11-27T06:56:27.192Z,3.60
2022-11-27T06:58:54.575Z,3.60
2022-11-27T07:01:22.266Z,3.50
2022-11-27T07:03:48.940Z,3.60
2022-11-27T07:06:17.732Z,3.60
2022-11-27T07:08:44.302Z,3.50
2022-11-27T07:11:15.191Z,3.40
2022-11-27T07:13:41.941Z,3.40
2022-11-27T07:16:09.565Z,3.40
2022-11-27T07:18:43.420Z,3.40
2022-11-27T07:21:10.050Z,3.50
2022-11-27T07:23:37.105Z,3.50
2022-11-27T07:26:07.616Z,3.60
2022-11-27T07:28:34.453Z,3.50
2022-11-27T07:31:01.425Z,3.60
2022-11-27T07:33:28.044Z,3.60
2022-11-27T07:35:59.125Z,3.60
2022-11-27T07:38:25.730Z,3.60
2022-11-27T07:40:53.949Z,3.60
2022-11-27T07:43:20.912Z,3.60
2022-11-27T07:45:47.586Z,3.60
2022-11-27T07:48:14.203Z,3.70
2022-11-27T07:50:41.184Z,3.80
2022-11-27T07:53:07.701Z,3.80
2022-11-27T07:55:34.275Z,3.80
2022-11-27T07:58:00.783Z,3.70
2022-11-27T08:00:27.443Z,3.80
2022-11-27T08:02:54.022Z,3.70
2022-11-27T08:05:20.644Z,3.60
2022-11-27T08:07:47.320Z,3.70
2022-11-27T08:10:13.983Z,3.70
2022-11-27T08:12:40.520Z,3.70
2022-11-27T08:15:07.385Z,3.80
2022-11-27T08:17:33.888Z,3.90
2022-11-27T08:20:00.490Z,4.00
2022-11-27T08:22:27.120Z,4.10
2022-11-27T08:24:53.751Z,4.10
2022-11-27T08:27:20.531Z,4.20
2022-11-27T08:29:47.341Z,4.20
2022-11-27T08:32:13.992Z,4.30
2022-11-27T08:34:41.148Z,4.30
2022-11-27T08:37:07.823Z,4.40
2022-11-27T08:39:34.477Z,4.60
2022-11-27T08:42:01.043Z,4.90
2022-11-27T08:44:27.519Z,5.00
2022-11-27T08:46:54.054Z,5.00
2022-11-27T08:49:20.615Z,4.90
2022-11-27T08:51:47.172Z,5.00
2022-11-27T08:54:13.675Z,5.10
2022-11-27T08:56:40.286Z,5.20
2022-11-27T08:59:06.866Z,5.30
2022-11-27T09:01:33.569Z,5.30
2022-11-27T09:04:00.297Z,5.40
2022-11-27T09:06:29.047Z,5.40
2022-11-27T09:08:56.432Z,5.40
2022-11-27T09:11:22.973Z,5.40
2022-11-27T09:13:49.685Z,5.40
2022-11-27T09:16:17.888Z,5.50
2022-11-27T09:18:44.812Z,5.60
2022-11-27T09:21:11.919Z,5.80
2022-11-27T09:23:38.671Z,5.80
2022-11-27T09:26:06.841Z,5.90
2022-11-27T09:28:34.061Z,5.90
2022-11-27T09:31:01.379Z,5.90
2022-11-27T09:33:28.704Z,5.90
2022-11-27T09:35:55.321Z,5.90
2022-11-27T09:38:21.860Z,6.00
2022-11-27T09:40:50.150Z,6.10
2022-11-27T09:43:17.612Z,6.10
2022-11-27T09:45:49.896Z,6.10
2022-11-27T09:48:22.023Z,6.20
2022-11-27T09:50:50.769Z,6.20
2022-11-27T09:53:20.192Z,6.20
2022-11-27T09:55:49.093Z,6.20
2022-11-27T09:58:51.122Z,6.30
2022-11-27T10:01:25.090Z,6.30
2022-11-27T10:03:54.423Z,6.40
2022-11-27T10:06:30.016Z,6.40
2022-11-27T10:09:06.411Z,6.40
2022-11-27T10:11:33.009Z,6.50
2022-11-27T10:14:02.729Z,6.70
2022-11-27T10:16:32.426Z,6.70
2022-11-27T10:19:03.407Z,6.70
2022-11-27T10:22:02.380Z,6.70
2022-11-27T10:24:38.772Z,6.70
2022-11-27T10:27:20.398Z,6.80
2022-11-27T10:29:54.171Z,6.80
2022-11-27T10:32:53.361Z,6.90
2022-11-27T10:35:16.308Z,7.00
2022-11-27T10:37:48.465Z,6.90
2022-11-27T10:40:14.914Z,6.90
2022-11-27T10:42:47.461Z,7.10
2022-11-27T10:45:17.194Z,7.10
2022-11-27T10:47:46.409Z,7.30
2022-11-27T10:50:14.081Z,7.30
2022-11-27T10:52:52.509Z,7.50
2022-11-27T10:55:25.187Z,7.60
2022-11-27T10:58:02.918Z,7.70
2022-11-27T11:00:29.581Z,7.70
2022-11-27T11:03:00.468Z,7.80
2022-11-27T11:08:20.659Z,7.80
2022-11-27T11:10:50.238Z,7.70
2022-11-27T11:13:16.806Z,7.70
2022-11-27T11:15:53.715Z,7.80
2022-11-27T11:18:22.226Z,7.80
2022-11-27T11:20:49.955Z,7.80
2022-11-27T11:23:30.744Z,7.80
2022-11-27T11:26:00.214Z,7.90
2022-11-27T11:28:26.923Z,7.90
2022-11-27T11:30:56.016Z,7.90
2022-11-27T11:33:22.573Z,8.00
2022-11-27T11:35:53.460Z,8.00
2022-11-27T11:38:24.211Z,8.00
2022-11-27T11:40:58.476Z,8.10
2022-11-27T11:43:26.424Z,8.10
2022-11-27T11:45:53.129Z,8.10
2022-11-27T11:48:24.621Z,8.10
2022-11-27T11:50:56.325Z,8.10
2022-11-27T11:53:36.679Z,8.20
2022-11-27T11:56:14.151Z,8.20
2022-11-27T11:59:00.257Z,8.10
2022-11-27T12:01:37.991Z,8.20
2022-11-27T12:04:04.561Z,8.10
2022-11-27T12:06:51.214Z,8.20
2022-11-27T12:09:36.340Z,8.20
2022-11-27T12:12:13.660Z,8.30
2022-11-27T12:14:45.529Z,8.40
2022-11-27T12:17:18.861Z,8.50
2022-11-27T12:19:45.455Z,8.50
2022-11-27T12:22:18.100Z,8.80
2022-11-27T12:24:54.151Z,8.80
2022-11-27T12:27:38.573Z,8.70
2022-11-27T12:30:22.056Z,8.60
2022-11-27T12:33:07.537Z,8.70
2022-11-27T12:35:37.967Z,8.70
2022-11-27T12:38:15.973Z,8.70
2022-11-27T12:40:57.774Z,8.70
2022-11-27T12:43:25.936Z,8.70
2022-11-27T12:46:11.609Z,8.80
2022-11-27T12:48:47.765Z,8.90
2022-11-27T12:51:40.404Z,8.90
2022-11-27T12:54:14.870Z,9.00
2022-11-27T12:56:52.516Z,9.00
2022-11-27T12:59:27.178Z,9.00
2022-11-27T13:02:04.120Z,9.00
2022-11-27T13:04:35.621Z,9.00
2022-11-27T13:07:05.790Z,9.00
2022-11-27T13:09:35.137Z,9.00
2022-11-27T13:12:02.304Z,9.10
2022-11-27T13:14:30.429Z,9.10
2022-11-27T13:17:00.482Z,9.20
2022-11-27T13:19:35.286Z,9.20
2022-11-27T13:22:08.352Z,9.30
2022-11-27T13:24:35.605Z,9.40
2022-11-27T13:27:02.133Z,9.40
2022-11-27T13:29:42.551Z,9.60
2022-11-27T13:32:09.953Z,9.70
2022-11-27T13:34:45.682Z,9.90
2022-11-27T13:37:41.684Z,9.90
2022-11-27T13:40:20.789Z,9.90
2022-11-27T13:42:55.005Z,9.90
2022-11-27T13:45:32.981Z,9.70
2022-11-27T13:48:00.529Z,9.60
2022-11-27T13:50:31.348Z,9.50
2022-11-27T13:53:07.834Z,9.40
2022-11-27T13:55:36.097Z,9.40
2022-11-27T13:58:03.743Z,9.30
2022-11-27T14:00:38.312Z,9.20
2022-11-27T14:03:05.899Z,9.10
2022-11-27T14:05:42.313Z,9.10
2022-11-27T14:08:21.541Z,9.10
2022-11-27T14:10:49.888Z,9.00
2022-11-27T14:13:16.525Z,8.90
2022-11-27T14:15:43.172Z,8.90
2022-11-27T14:18:09.705Z,8.90
2022-11-27T14:20:45.257Z,8.90
2022-11-27T14:23:13.476Z,8.80
2022-11-27T14:25:40.752Z,8.70
2022-11-27T14:28:13.477Z,8.70
2022-11-27T14:30:40.073Z,8.60
2022-11-27T14:33:15.932Z,8.60
2022-11-27T14:35:42.477Z,8.60
2022-11-27T14:38:10.211Z,8.50
2022-11-27T14:40:36.904Z,8.50
2022-11-27T14:43:09.632Z,8.40
2022-11-27T14:45:36.342Z,8.30
2022-11-27T14:48:02.903Z,8.30
2022-11-27T14:50:29.377Z,8.30
2022-11-27T14:52:56.917Z,8.20
2022-11-27T14:55:23.765Z,8.20
2022-11-27T14:57:50.844Z,8.10
2022-11-27T15:00:24.041Z,8.10
2022-11-27T15:02:51.768Z,8.00
2022-11-27T15:05:20.213Z,8.00
2022-11-27T15:07:50.792Z,8.00
2022-11-27T15:10:23.690Z,8.00
2022-11-27T15:12:50.564Z,7.90
2022-11-27T15:15:27.398Z,7.90
2022-11-27T15:17:58.702Z,7.90
2022-11-27T15:20:34.874Z,7.80
2022-11-27T15:23:01.993Z,7.80
2022-11-27T15:25:34.427Z,7.70
2022-11-27T15:28:01.132Z,7.70
2022-11-27T15:30:27.878Z,7.70
2022-11-27T15:32:55.450Z,7.60
2022-11-27T15:35:21.902Z,7.70
2022-11-27T15:37:48.397Z,7.60
2022-11-27T15:40:36.146Z,7.60
2022-11-27T15:43:03.123Z,7.60
2022-11-27T15:45:31.375Z,7.50
2022-11-27T15:48:01.334Z,7.60
2022-11-27T15:50:31.384Z,7.50
2022-11-27T15:52:58.036Z,7.60
2022-11-27T15:55:24.529Z,7.50
2022-11-27T15:57:51.105Z,7.40
2022-11-27T16:00:17.975Z,7.40
2022-11-27T16:02:44.493Z,7.40
2022-11-27T16:05:11.097Z,7.40
2022-11-27T16:07:37.751Z,7.30
2022-11-27T16:10:04.825Z,7.30
2022-11-27T16:12:31.324Z,7.20
2022-11-27T16:14:57.855Z,7.20
2022-11-27T16:17:24.372Z,7.20
2022-11-27T16:19:50.928Z,7.10
2022-11-27T16:22:17.546Z,7.10
2022-11-27T16:24:44.277Z,7.10
2022-11-27T16:27:11.039Z,7.10
2022-11-27T16:29:37.561Z,7.00
2022-11-27T16:32:04.334Z,7.00
2022-11-27T16:34:30.860Z,7.00
2022-11-27T16:36:57.393Z,7.00
2022-11-27T16:39:23.896Z,6.90
2022-11-27T16:41:50.390Z,6.80
2022-11-27T16:44:16.848Z,6.90
2022-11-27T16:46:44.449Z,6.80
2022-11-27T16:49:11.394Z,6.80
2022-11-27T16:51:39.153Z,6.80
2022-11-27T16:54:07.457Z,6.90
2022-11-27T16:56:34.530Z,6.90
2022-11-27T16:59:03.336Z,6.90
2022-11-27T17:01:32.068Z,6.80
2022-11-27T17:03:59.568Z,6.90
2022-11-27T17:06:27.175Z,6.90
2022-11-27T17:08:54.245Z,6.80
2022-11-27T17:11:22.197Z,6.80
2022-11-27T17:13:48.817Z,6.80
2022-11-27T17:16:15.804Z,6.80
2022-11-27T17:18:42.814Z,6.80
2022-11-27T17:21:10.429Z,6.70
2022-11-27T17:23:37.594Z,6.70
2022-11-27T17:26:11.027Z,6.80
2022-11-27T17:28:37.866Z,6.70
2022-11-27T17:31:11.574Z,6.70
2022-11-27T17:33:38.340Z,6.70
2022-11-27T17:36:05.128Z,6.70
2022-11-27T17:38:31.821Z,6.80
2022-11-27T17:41:02.091Z,6.80
2022-11-27T17:43:30.295Z,6.70
2022-11-27T17:45:57.384Z,6.70
2022-11-27T17:48:25.242Z,6.70
2022-11-27T17:50:51.922Z,6.70
2022-11-27T17:53:18.803Z,6.70
2022-11-27T17:55:45.369Z,6.70
2022-11-27T17:58:11.856Z,6.70
2022-11-27T18:00:38.933Z,6.70
2022-11-27T18:03:07.471Z,6.60
2022-11-27T18:05:37.549Z,6.60
2022-11-27T18:08:06.765Z,6.60
2022-11-27T18:10:33.902Z,6.60
2022-11-27T18:13:00.526Z,6.60
2022-11-27T18:15:27.039Z,6.60
2022-11-27T18:17:53.491Z,6.60
2022-11-27T18:20:27.646Z,6.60
2022-11-27T18:22:54.126Z,6.60
2022-11-27T18:25:20.916Z,6.60
2022-11-27T18:27:47.406Z,6.60
2022-11-27T18:30:14.223Z,6.60
2022-11-27T18:32:41.034Z,6.70
2022-11-27T18:35:07.780Z,6.60
2022-11-27T18:37:34.765Z,6.60
2022-11-27T18:40:01.252Z,6.70
2022-11-27T18:42:30.144Z,6.60
2022-11-27T18:44:56.792Z,6.60
2022-11-27T18:47:24.512Z,6.60
2022-11-27T18:49:51.130Z,6.60
2022-11-27T18:52:17.701Z,6.60
2022-11-27T18:54:44.332Z,6.60
2022-11-27T18:57:11.194Z,6.60
2022-11-27T18:59:38.314Z,6.60
2022-11-27T19:02:05.146Z,6.60
2022-11-27T19:04:34.143Z,6.60
2022-11-27T19:07:00.747Z,6.60
2022-11-27T19:09:30.878Z,6.60
2022-11-27T19:11:58.353Z,6.70
2022-11-27T19:14:24.933Z,6.70
2022-11-27T19:16:52.416Z,6.70
2022-11-27T19:19:53.519Z,6.70
2022-11-27T19:22:07.269Z,6.70
2022-11-27T19:24:33.921Z,6.70
2022-11-27T19:27:00.580Z,6.70
2022-11-27T19:29:27.312Z,6.60
2022-11-27T19:31:56.026Z,6.60
2022-11-27T19:34:22.729Z,6.60
2022-11-27T19:36:49.404Z,6.60
2022-11-27T19:39:16.144Z,6.60
2022-11-27T19:41:43.300Z,6.70
2022-11-27T19:44:11.224Z,6.70
2022-11-27T19:46:38.125Z,6.60
2022-11-27T19:49:06.560Z,6.60
2022-11-27T19:51:34.560Z,6.70
2022-11-27T19:54:05.631Z,6.60
2022-11-27T19:56:37.314Z,6.60
2022-11-27T19:59:04.144Z,6.60
2022-11-27T20:01:30.750Z,6.70
2022-11-27T20:03:57.485Z,6.60
2022-11-27T20:06:24.971Z,6.60
2022-11-27T20:08:52.729Z,6.60
2022-11-27T20:11:20.667Z,6.60
2022-11-27T20:13:47.465Z,6.60
2022-11-27T20:16:16.595Z,6.70
2022-11-27T20:18:43.236Z,6.70
2022-11-27T20:21:14.660Z,6.70
2022-11-27T20:23:41.881Z,6.60
2022-11-27T20:26:09.706Z,6.70
2022-11-27T20:28:36.847Z,6.70
2022-11-27T20:31:03.857Z,6.60
2022-11-27T20:33:31.501Z,6.60
2022-11-27T20:35:58.317Z,6.60
2022-11-27T20:38:26.487Z,6.60
2022-11-27T20:40:53.577Z,6.60
2022-11-27T20:43:20.209Z,6.50
2022-11-27T20:45:46.949Z,6.50
2022-11-27T20:48:13.460Z,6.50
2022-11-27T20:50:40.140Z,6.50
2022-11-27T20:53:06.803Z,6.50
2022-11-27T20:55:33.577Z,6.50
2022-11-27T20:58:00.197Z,6.50
2022-11-27T21:00:26.862Z,6.50
2022-11-27T21:02:53.462Z,6.50
2022-11-27T21:05:20.056Z,6.50
2022-11-27T21:07:46.786Z,6.50
2022-11-27T21:10:14.797Z,6.50
2022-11-27T21:12:41.428Z,6.50
2022-11-27T21:15:08.226Z,6.50
2022-11-27T21:17:34.920Z,6.50
2022-11-27T21:20:01.562Z,6.50
2022-11-27T21:22:28.686Z,6.40
2022-11-27T21:24:55.351Z,6.40
2022-11-27T21:27:21.974Z,6.40
2022-11-27T21:29:48.744Z,6.40
2022-11-27T21:32:17.845Z,6.40
2022-11-27T21:34:44.659Z,6.40
2022-11-27T21:37:11.231Z,6.40
2022-11-27T21:39:38.276Z,6.40
2022-11-27T21:42:04.811Z,6.40
2022-11-27T21:44:31.259Z,6.30
2022-11-27T21:46:59.760Z,6.40
2022-11-27T21:49:26.419Z,6.40
2022-11-27T21:51:53.585Z,6.30
2022-11-27T21:54:20.477Z,6.30
2022-11-27T21:56:49.873Z,6.20
2022-11-27T21:59:16.401Z,6.30
2022-11-27T22:01:44.417Z,6.30
2022-11-27T22:04:11.058Z,6.30
2022-11-27T22:06:38.823Z,6.30
2022-11-27T22:09:09.246Z,6.30
2022-11-27T22:11:38.463Z,6.30
2022-11-27T22:14:05.748Z,6.20
2022-11-27T22:16:33.653Z,6.20
2022-11-27T22:19:00.832Z,6.20
2022-11-27T22:21:28.030Z,6.30
2022-11-27T22:23:54.511Z,6.20
2022-11-27T22:26:21.923Z,6.30
2022-11-27T22:28:48.840Z,6.30
2022-11-27T22:31:23.026Z,6.30
2022-11-27T22:33:50.081Z,6.30
2022-11-27T22:36:17.898Z,6.20
2022-11-27T22:38:45.393Z,6.20
2022-11-27T22:41:13.120Z,6.10
2022-11-27T22:43:39.728Z,6.20
2022-11-27T22:46:10.378Z,6.20
2022-11-27T22:48:37.123Z,6.10
2022-11-27T22:51:03.669Z,6.10
2022-11-27T22:53:30.193Z,6.10
2022-11-27T22:55:57.178Z,6.10
2022-11-27T22:58:23.678Z,6.10
2022-11-27T23:00:57.045Z,6.10
2022-11-27T23:03:23.726Z,6.10
2022-11-27T23:05:50.345Z,6.00
2022-11-27T23:08:18.821Z,6.00
2022-11-27T23:10:48.901Z,6.00
2022-11-27T23:13:16.164Z,6.00
2022-11-27T23:15:42.946Z,6.00
2022-11-27T23:18:09.495Z,5.90
2022-11-27T23:20:39.728Z,5.90
2022-11-27T23:23:06.421Z,6.00
2022-11-27T23:25:32.957Z,6.00
2022-11-27T23:27:59.524Z,6.00
2022-11-27T23:30:26.027Z,6.00
2022-11-27T23:32:52.525Z,6.00
2022-11-27T23:35:19.033Z,6.00
2022-11-27T23:37:45.637Z,6.00
2022-11-27T23:40:12.257Z,6.00
2022-11-27T23:42:38.719Z,6.00
2022-11-27T23:45:05.395Z,6.00
2022-11-27T23:47:31.845Z,6.00
2022-11-27T23:49:59.331Z,5.90
2022-11-27T23:52:25.819Z,5.90
2022-11-27T23:54:52.272Z,5.80
2022-11-27T23:57:18.928Z,5.90
2022-11-27T23:59:45.473Z,5.90
